Time;durP1;ratioP1;P1;durP2;ratioP2;P2;SDS_P1;SDS_P2;PMS_P1;PMS_P2;Temp;Humidity;BMP_temperature;BMP_pressure;BME280_temperature;BME280_humidity;BME280_pressure;Samples;Min_cycle;Max_cycle;Signal;HPM_P1;HPM_P2
2023/09/20 00:01:20;;;;;;;7.70;6.20;;;;;;;14.88;100.00;97402.05;110258;1241;69163;-62
2023/09/20 00:03:50;;;;;;;7.00;5.50;;;;;;;14.82;100.00;97408.20;110208;1241;68407;-60
2023/09/20 00:06:20;;;;;;;7.30;6.20;;;;;;;14.75;100.00;97408.25;110262;1241;59706;-60
2023/09/20 00:08:52;;;;;;;8.10;6.30;;;;;;;14.69;100.00;97409.65;110243;1241;59697;-62
2023/09/20 00:11:23;;;;;;;6.60;5.20;;;;;;;14.63;100.00;97411.59;110192;1239;71668;-60
2023/09/20 00:13:54;;;;;;;6.00;4.80;;;;;;;14.57;100.00;97416.57;110281;1241;68395;-60
2023/09/20 00:16:25;;;;;;;7.10;5.50;;;;;;;14.52;100.00;97421.04;110205;1240;68364;-59
2023/09/20 00:18:56;;;;;;;8.30;5.30;;;;;;;14.46;100.00;97420.50;110199;1240;60162;-60
2023/09/20 00:21:27;;;;;;;6.40;5.20;;;;;;;14.42;100.00;97423.27;110220;1241;59632;-60
2023/09/20 00:23:59;;;;;;;6.20;5.50;;;;;;;14.40;100.00;97428.92;110270;1240;70660;-61
2023/09/20 00:26:34;;;;;;;6.60;4.70;;;;;;;14.37;100.00;97431.30;110259;1241;69080;-61
2023/09/20 00:29:05;;;;;;;9.20;5.80;;;;;;;14.36;100.00;97433.15;110214;1241;69214;-60
2023/09/20 00:31:37;;;;;;;7.30;5.50;;;;;;;14.34;100.00;97436.29;110237;1241;59696;-60
2023/09/20 00:34:08;;;;;;;6.60;5.60;;;;;;;14.34;100.00;97440.83;110248;1244;59738;-60
2023/09/20 00:36:38;;;;;;;7.70;5.30;;;;;;;14.35;100.00;97435.98;110252;1241;71227;-62
2023/09/20 00:39:10;;;;;;;6.80;4.40;;;;;;;14.39;100.00;97442.35;110336;1241;69314;-62
2023/09/20 00:41:43;;;;;;;10.30;7.30;;;;;;;14.46;100.00;97446.24;110219;1240;68494;-61
2023/09/20 00:44:18;;;;;;;9.60;6.00;;;;;;;14.45;100.00;97444.55;110316;1247;59680;-61
2023/09/20 00:46:55;;;;;;;6.60;5.30;;;;;;;14.46;100.00;97443.64;110433;1240;59667;-61
2023/09/20 00:49:27;;;;;;;8.70;6.20;;;;;;;14.46;100.00;97444.13;110304;1242;71481;-62
2023/09/20 00:51:58;;;;;;;8.20;7.00;;;;;;;14.45;100.00;97447.20;110311;1242;69658;-61
2023/09/20 00:54:33;;;;;;;8.90;7.00;;;;;;;14.43;100.00;97449.63;110304;1241;69204;-60
2023/09/20 00:57:07;;;;;;;9.60;7.50;;;;;;;14.42;100.00;97451.34;110367;1241;59696;-60
2023/09/20 00:59:40;;;;;;;6.90;5.80;;;;;;;14.43;100.00;97454.80;110359;1241;59731;-60
2023/09/20 01:02:14;;;;;;;8.10;6.00;;;;;;;14.44;100.00;97453.74;110356;1241;71473;-62
2023/09/20 01:04:47;;;;;;;9.10;7.50;;;;;;;14.47;100.00;97454.23;110391;1241;69078;-61
2023/09/20 01:07:21;;;;;;;8.50;7.10;;;;;;;14.48;100.00;97453.29;110320;1241;69312;-60
2023/09/20 01:09:52;;;;;;;10.70;8.60;;;;;;;14.48;100.00;97454.65;110338;1241;59731;-60
2023/09/20 01:12:25;;;;;;;11.60;8.20;;;;;;;14.50;100.00;97455.55;110306;1241;59696;-61
2023/09/20 01:14:56;;;;;;;11.90;8.40;;;;;;;14.51;100.00;97456.17;110165;1245;69872;-60
2023/09/20 01:17:26;;;;;;;9.70;7.80;;;;;;;14.52;100.00;97463.96;110303;1241;69053;-60
2023/09/20 01:19:58;;;;;;;10.00;7.50;;;;;;;14.54;100.00;97468.75;110326;1241;68867;-62
2023/09/20 01:22:33;;;;;;;7.00;6.30;;;;;;;14.55;100.00;97465.63;110357;1241;59669;-62
2023/09/20 01:25:11;;;;;;;8.10;6.40;;;;;;;14.57;100.00;97470.20;110328;1241;59661;-62
2023/09/20 01:27:43;;;;;;;8.30;5.90;;;;;;;14.58;100.00;97473.45;110293;1244;71390;-60
2023/09/20 01:30:18;;;;;;;5.80;5.00;;;;;;;14.60;100.00;97473.13;110284;1243;68919;-59
2023/09/20 01:32:52;;;;;;;8.00;5.60;;;;;;;14.60;100.00;97473.13;110305;1242;69829;-60
2023/09/20 01:35:25;;;;;;;6.30;4.80;;;;;;;14.61;100.00;97473.59;110269;1241;59744;-60
2023/09/20 01:37:58;;;;;;;6.80;5.50;;;;;;;14.63;100.00;97472.34;110229;1241;59737;-62
2023/09/20 01:40:35;;;;;;;9.30;6.70;;;;;;;14.63;100.00;97476.13;110316;1241;71383;-62
2023/09/20 01:55:31;;;;;;;8.60;7.10;;;;;;;15.03;100.00;97477.52;107327;1271;610161;-59
2023/09/20 01:58:12;;;;;;;8.90;6.60;;;;;;;15.09;100.00;97477.52;108077;1254;1483782;-59
2023/09/20 02:00:50;;;;;;;8.80;7.20;;;;;;;15.08;100.00;97473.92;109807;1245;57708;-59
2023/09/20 02:03:20;;;;;;;7.90;7.10;;;;;;;15.06;100.00;97477.58;109977;1245;68992;-60
2023/09/20 02:05:50;;;;;;;8.80;6.60;;;;;;;15.03;100.00;97478.91;110079;1246;69789;-60
2023/09/20 02:08:21;;;;;;;8.40;6.60;;;;;;;15.01;100.00;97477.51;110195;1243;68517;-60
2023/09/20 02:10:56;;;;;;;8.10;6.10;;;;;;;14.99;100.00;97476.96;110187;1245;57746;-61
2023/09/20 02:13:27;;;;;;;8.60;7.20;;;;;;;14.98;100.00;97473.23;110171;1245;57644;-62
2023/09/20 02:15:59;;;;;;;10.50;7.40;;;;;;;14.96;100.00;97474.27;109883;1249;68960;-62
2023/09/20 02:18:29;;;;;;;15.80;12.70;;;;;;;14.93;100.00;97471.55;110263;1246;69251;-62
2023/09/20 02:21:02;;;;;;;14.10;10.20;;;;;;;14.90;100.00;97472.22;110245;1243;68598;-60
2023/09/20 02:23:35;;;;;;;8.80;7.70;;;;;;;14.86;100.00;97466.95;110649;1245;58080;-60
2023/09/20 02:26:09;;;;;;;7.80;6.60;;;;;;;14.86;100.00;97466.95;110512;1244;58162;-61
2023/09/20 02:28:40;;;;;;;8.70;6.40;;;;;;;14.86;100.00;97465.02;110062;1245;69166;-62
2023/09/20 02:31:12;;;;;;;8.70;6.60;;;;;;;14.85;100.00;97467.20;110194;1244;68493;-60
2023/09/20 02:33:45;;;;;;;6.80;6.00;;;;;;;14.83;100.00;97469.88;110146;1243;68963;-62
2023/09/20 02:36:16;;;;;;;7.50;5.80;;;;;;;14.81;100.00;97473.54;109950;1246;58067;-61
2023/09/20 02:38:46;;;;;;;7.80;5.70;;;;;;;14.80;100.00;97474.02;110148;1247;58068;-61
2023/09/20 02:41:16;;;;;;;6.70;5.30;;;;;;;14.79;100.00;97475.63;109795;1244;69698;-59
2023/09/20 02:43:51;;;;;;;6.60;5.60;;;;;;;14.78;100.00;97473.61;110064;1244;69128;-60
2023/09/20 02:46:22;;;;;;;6.40;5.00;;;;;;;14.77;100.00;97482.42;109864;1248;68837;-60
2023/09/20 02:48:54;;;;;;;7.00;5.40;;;;;;;14.74;100.00;97480.77;110058;1245;58134;-61
2023/09/20 02:51:25;;;;;;;7.20;5.60;;;;;;;14.72;100.00;97484.86;110118;1247;58127;-61
2023/09/20 02:53:57;;;;;;;8.40;5.90;;;;;;;14.68;100.00;97488.89;109950;1244;69925;-62
2023/09/20 02:56:27;;;;;;;9.20;6.00;;;;;;;14.66;100.00;97492.23;110082;1244;68559;-60
2023/09/20 02:58:58;;;;;;;7.60;5.30;;;;;;;14.65;100.00;97500.20;109899;1246;69307;-60
2023/09/20 03:01:33;;;;;;;6.20;4.90;;;;;;;14.66;100.00;97503.48;109871;1245;58062;-60
2023/09/20 03:04:03;;;;;;;5.60;4.60;;;;;;;14.67;100.00;97501.10;109763;1248;58027;-62
2023/09/20 03:06:33;;;;;;;6.40;4.90;;;;;;;14.66;100.00;97501.88;109948;1245;69033;-60
2023/09/20 03:09:03;;;;;;;5.90;4.40;;;;;;;14.65;100.00;97508.44;109858;1249;69267;-59
2023/09/20 03:11:35;;;;;;;5.80;4.20;;;;;;;14.64;100.00;97513.08;109958;1243;70430;-60
2023/09/20 03:14:08;;;;;;;6.30;5.20;;;;;;;14.63;100.00;97515.69;109872;1249;58071;-60
2023/09/20 03:16:43;;;;;;;8.30;6.10;;;;;;;14.59;100.00;97516.20;109874;1249;58066;-61
2023/09/20 03:19:14;;;;;;;8.20;5.00;;;;;;;14.54;100.00;97518.34;109930;1249;70427;-62
2023/09/20 03:21:46;;;;;;;7.10;5.90;;;;;;;14.48;100.00;97519.19;109928;1247;69395;-60
2023/09/20 03:24:17;;;;;;;7.80;5.30;;;;;;;14.41;100.00;97518.80;109949;1248;69879;-60
2023/09/20 03:26:51;;;;;;;10.00;6.00;;;;;;;14.35;100.00;97516.16;109736;1248;58124;-59
2023/09/20 03:29:23;;;;;;;12.60;7.70;;;;;;;14.30;100.00;97514.65;109803;1245;58117;-59
2023/09/20 03:31:54;;;;;;;13.90;6.90;;;;;;;14.24;100.00;97511.75;109745;1249;69802;-59
2023/09/20 03:34:26;;;;;;;9.60;7.30;;;;;;;14.20;100.00;97513.69;110020;1246;68658;-60
2023/09/20 03:36:57;;;;;;;38.10;9.40;;;;;;;14.16;100.00;97510.55;110144;1245;68768;-60
2023/09/20 03:39:27;;;;;;;45.70;8.60;;;;;;;14.13;100.00;97514.47;110173;1246;58094;-61
2023/09/20 03:41:58;;;;;;;74.30;10.80;;;;;;;14.10;100.00;97513.16;110160;1246;58056;-60
2023/09/20 03:44:28;;;;;;;35.50;7.70;;;;;;;14.07;100.00;97510.13;110157;1241;69846;-59
2023/09/20 03:47:00;;;;;;;10.30;6.40;;;;;;;14.04;100.00;97510.39;110158;1245;69155;-60
2023/09/20 03:49:30;;;;;;;11.40;5.30;;;;;;;14.01;100.00;97511.45;110196;1246;69350;-61
2023/09/20 03:52:00;;;;;;;;;;;;;;;14.01;100.00;97515.02;110175;1247;58150;-60
2023/09/20 03:54:31;;;;;;;9.60;5.50;;;;;;;13.98;100.00;97514.58;110196;1246;58063;-60
2023/09/20 03:57:01;;;;;;;10.30;4.50;;;;;;;13.94;100.00;97512.46;110163;1241;69621;-60
2023/09/20 03:59:32;;;;;;;8.10;4.40;;;;;;;13.90;100.00;97516.08;110166;1241;68858;-60
2023/09/20 04:02:03;;;;;;;5.60;3.60;;;;;;;13.88;100.00;97513.70;110198;1241;68361;-59
2023/09/20 04:04:34;;;;;;;7.50;4.50;;;;;;;13.85;100.00;97514.28;110198;1245;58060;-60
2023/09/20 04:07:04;;;;;;;6.10;4.50;;;;;;;13.83;100.00;97512.87;110134;1245;58056;-61
2023/09/20 04:09:35;;;;;;;;;;;;;;;13.82;100.00;97517.15;110183;1246;70345;-61
2023/09/20 04:12:04;;;;;;;10.70;6.40;;;;;;;13.79;100.00;97518.08;110164;1246;69699;-59
2023/09/20 04:14:35;;;;;;;9.70;6.40;;;;;;;13.77;100.00;97522.11;110173;1244;69293;-59
2023/09/20 04:17:07;;;;;;;7.00;4.90;;;;;;;13.73;100.00;97529.04;110213;1244;58148;-61
2023/09/20 04:19:39;;;;;;;10.20;6.40;;;;;;;13.72;100.00;97529.89;110194;1245;58057;-60
2023/09/20 04:22:10;;;;;;;7.40;5.60;;;;;;;13.70;100.00;97528.63;110217;1244;70750;-62
2023/09/20 04:24:39;;;;;;;5.60;4.80;;;;;;;13.68;100.00;97529.67;110203;1243;68594;-60
2023/09/20 04:27:09;;;;;;;7.00;5.20;;;;;;;13.71;100.00;97531.17;110137;1241;68691;-62
2023/09/20 04:29:39;;;;;;;7.90;6.00;;;;;;;13.77;100.00;97530.70;110161;1245;58097;-60
2023/09/20 04:32:08;;;;;;;6.80;5.20;;;;;;;13.80;100.00;97528.33;110151;1246;58069;-62
2023/09/20 04:34:37;;;;;;;;;;;;;;;13.81;100.00;97531.58;110193;1244;69823;-61
2023/09/20 04:37:08;;;;;;;17.20;5.70;;;;;;;13.82;100.00;97535.89;110190;1245;69718;-61
2023/09/20 04:39:37;;;;;;;;;;;;;;;13.81;100.00;97537.60;110176;1242;68391;-61
2023/09/20 04:42:10;;;;;;;15.40;6.10;;;;;;;13.80;100.00;97537.80;110153;1246;58177;-59
2023/09/20 04:44:41;;;;;;;9.80;5.40;;;;;;;13.82;100.00;97538.38;110209;1245;58072;-61
2023/09/20 04:47:12;;;;;;;6.60;5.50;;;;;;;13.82;100.00;97538.36;110180;1241;70459;-61
2023/09/20 04:49:42;;;;;;;6.60;5.20;;;;;;;13.83;100.00;97536.38;110148;1245;69805;-60
2023/09/20 04:52:15;;;;;;;7.10;5.10;;;;;;;13.85;100.00;97533.17;110127;1246;69651;-61
2023/09/20 04:54:45;;;;;;;8.10;6.10;;;;;;;13.90;100.00;97537.36;110233;1243;58070;-62
2023/09/20 04:57:14;;;;;;;7.70;4.80;;;;;;;13.94;100.00;97540.87;110235;1243;58020;-62
2023/09/20 04:59:45;;;;;;;9.70;6.20;;;;;;;13.96;100.00;97541.34;110171;1244;69742;-60
2023/09/20 05:02:14;;;;;;;9.90;6.90;;;;;;;13.97;100.00;97543.88;110205;1245;68491;-60
2023/09/20 05:04:44;;;;;;;10.70;7.20;;;;;;;13.97;100.00;97549.66;110193;1246;69875;-59
2023/09/20 05:07:14;;;;;;;8.60;6.90;;;;;;;13.99;100.00;97551.98;110225;1244;58135;-60
2023/09/20 05:09:44;;;;;;;8.30;6.20;;;;;;;14.04;100.00;97551.41;110190;1245;58034;-60
2023/09/20 05:12:14;;;;;;;8.10;5.70;;;;;;;14.11;100.00;97557.45;110151;1251;70347;-60
2023/09/20 05:14:45;;;;;;;9.00;6.40;;;;;;;14.14;100.00;97554.42;110210;1245;69739;-60
2023/09/20 05:17:14;;;;;;;7.90;5.60;;;;;;;14.17;100.00;97557.94;110194;1253;68532;-61
2023/09/20 05:19:44;;;;;;;;;;;;;;;14.25;100.00;97563.56;110183;1247;58118;-62
2023/09/20 05:22:14;;;;;;;9.70;6.10;;;;;;;14.33;100.00;97568.55;110191;1241;58134;-60
2023/09/20 05:24:43;;;;;;;9.90;5.80;;;;;;;14.42;100.00;97576.35;110199;1246;68781;-61
2023/09/20 05:27:14;;;;;;;11.20;5.20;;;;;;;14.48;100.00;97574.62;110208;1243;69837;-61
2023/09/20 05:29:44;;;;;;;5.70;4.60;;;;;;;14.55;100.00;97575.26;110144;1241;69684;-60
2023/09/20 05:32:13;;;;;;;5.20;4.40;;;;;;;14.61;100.00;97574.03;110103;1247;58059;-60
2023/09/20 05:34:46;;;;;;;7.60;5.60;;;;;;;14.69;100.00;97575.14;110167;1243;58024;-60
2023/09/20 05:37:15;;;;;;;7.30;6.20;;;;;;;14.75;100.00;97571.41;110169;1243;69611;-60
2023/09/20 05:39:48;;;;;;;;;;;;;;;14.87;100.00;97576.71;110182;1243;69678;-60
2023/09/20 05:42:17;;;;;;;7.70;6.40;;;;;;;15.05;100.00;97579.48;110184;1244;69290;-60
2023/09/20 05:44:48;;;;;;;14.40;11.30;;;;;;;15.22;100.00;97585.16;110158;1245;58179;-60
2023/09/20 05:47:17;;;;;;;9.90;7.50;;;;;;;15.30;100.00;97583.77;110191;1241;58166;-60
2023/09/20 05:49:49;;;;;;;12.10;8.90;;;;;;;15.51;100.00;97579.73;110188;1244;69881;-60
2023/09/20 05:52:18;;;;;;;9.40;7.90;;;;;;;15.73;100.00;97580.98;110115;1242;69212;-59
2023/09/20 05:54:47;;;;;;;10.40;7.30;;;;;;;15.78;100.00;97579.27;110133;1247;70189;-60
2023/09/20 05:57:18;;;;;;;11.80;10.10;;;;;;;15.99;100.00;97580.16;110176;1246;58125;-60
2023/09/20 05:59:47;;;;;;;10.30;9.00;;;;;;;16.27;100.00;97585.66;110138;1252;58063;-59
2023/09/20 06:02:17;;;;;;;11.50;8.30;;;;;;;16.56;100.00;97590.69;110174;1245;70154;-61
2023/09/20 06:04:46;;;;;;;7.70;6.50;;;;;;;16.64;100.00;97591.16;110172;1245;69803;-61
2023/09/20 06:07:15;;;;;;;;;;;;;;;16.69;100.00;97588.23;110175;1241;68519;-60
2023/09/20 06:09:45;;;;;;;11.10;8.60;;;;;;;16.80;100.00;97586.98;110205;1241;58883;-62
2023/09/20 06:12:15;;;;;;;9.40;7.20;;;;;;;16.86;100.00;97590.35;110205;1246;58924;-59
2023/09/20 06:14:45;;;;;;;12.50;8.40;;;;;;;16.94;100.00;97595.95;110151;1241;69516;-60
2023/09/20 06:17:14;;;;;;;12.00;8.20;;;;;;;17.01;100.00;97595.60;110190;1246;69217;-59
2023/09/20 06:19:45;;;;;;;11.50;8.70;;;;;;;17.13;100.00;97597.06;110136;1243;69268;-60
2023/09/20 06:22:16;;;;;;;11.10;9.00;;;;;;;17.30;100.00;97601.38;110212;1246;58869;-59
2023/09/20 06:24:46;;;;;;;12.10;10.50;;;;;;;17.21;100.00;97602.11;110175;1241;59258;-59
2023/09/20 06:27:15;;;;;;;10.80;8.20;;;;;;;17.20;100.00;97602.53;110195;1245;70719;-59
2023/09/20 06:29:45;;;;;;;7.50;6.50;;;;;;;17.28;100.00;97601.42;110283;1244;69842;-60
2023/09/20 06:32:15;;;;;;;11.70;7.60;;;;;;;17.57;100.00;97603.89;110159;1241;69287;-60
2023/09/20 06:34:46;;;;;;;7.70;6.60;;;;;;;17.86;100.00;97603.11;110138;1242;59183;-60
2023/09/20 06:37:26;;;;;;;4.50;3.40;;;;;;;18.23;100.00;97602.37;110237;1245;58866;-61
2023/09/20 06:39:56;;;;;;;7.00;3.30;;;;;;;18.34;100.00;97601.83;110122;1244;70763;-59
2023/09/20 06:42:30;;;;;;;3.70;2.70;;;;;;;18.62;100.00;97605.18;110182;1244;69112;-61
2023/09/20 06:44:59;;;;;;;3.70;2.50;;;;;;;18.97;100.00;97604.35;110160;1251;68525;-60
2023/09/20 06:47:28;;;;;;;;;;;;;;;19.49;100.00;97604.08;110283;1241;58921;-60
2023/09/20 06:49:59;;;;;;;2.90;2.40;;;;;;;19.70;99.00;97606.24;110200;1246;58892;-61
2023/09/20 06:52:28;;;;;;;2.40;2.10;;;;;;;20.00;95.98;97608.33;110238;1245;70559;-60
2023/09/20 06:54:57;;;;;;;2.80;2.10;;;;;;;20.17;92.49;97619.08;110129;1243;69414;-60
2023/09/20 06:57:29;;;;;;;3.00;2.10;;;;;;;20.33;95.27;97623.52;110178;1245;68865;-61
2023/09/20 06:59:59;;;;;;;3.10;2.20;;;;;;;20.28;94.40;97626.27;110168;1246;58914;-60
2023/09/20 07:02:28;;;;;;;;;;;;;;;20.26;92.44;97624.61;110187;1246;58927;-60
2023/09/20 07:04:58;;;;;;;3.10;2.10;;;;;;;20.36;94.39;97625.42;110156;1244;70410;-60
2023/09/20 07:07:27;;;;;;;3.10;2.30;;;;;;;20.36;93.16;97624.89;110184;1241;70183;-60
2023/09/20 07:09:59;;;;;;;3.50;2.40;;;;;;;20.23;88.89;97631.05;110124;1241;69139;-60
2023/09/20 07:12:29;;;;;;;3.20;2.00;;;;;;;20.31;89.87;97631.14;110096;1245;59402;-62
2023/09/20 07:14:58;;;;;;;3.80;2.70;;;;;;;20.40;92.79;97626.98;110168;1243;58986;-59
2023/09/20 07:17:28;;;;;;;;;;;;;;;20.58;96.00;97622.70;110197;1244;71177;-63
2023/09/20 07:19:58;;;;;;;3.80;2.40;;;;;;;20.85;92.83;97623.06;110285;1245;69804;-63
2023/09/20 07:22:31;;;;;;;2.50;2.10;;;;;;;21.19;87.78;97628.52;110222;1243;69124;-62
2023/09/20 07:25:04;;;;;;;2.40;2.10;;;;;;;21.64;84.07;97627.95;110330;1241;58928;-62
2023/09/20 07:27:34;;;;;;;2.80;2.20;;;;;;;21.90;78.88;97626.75;110234;1241;58931;-61
2023/09/20 07:30:08;;;;;;;3.00;2.20;;;;;;;21.77;80.64;97631.06;110206;1241;71182;-61
2023/09/20 07:32:38;;;;;;;2.90;2.10;;;;;;;22.43;77.94;97629.42;110191;1245;69798;-60
2023/09/20 07:35:19;;;;;;;3.30;2.70;;;;;;;22.57;75.17;97625.99;110163;1241;69235;-62
2023/09/20 07:37:57;;;;;;;3.80;2.70;;;;;;;22.81;73.71;97630.91;110217;1246;58876;-60
2023/09/20 07:40:29;;;;;;;4.00;2.80;;;;;;;22.50;73.87;97631.59;110227;1241;58991;-59
2023/09/20 07:43:06;;;;;;;2.80;2.00;;;;;;;22.53;74.39;97627.50;110184;1245;69841;-59
2023/09/20 07:45:54;;;;;;;2.20;1.80;;;;;;;22.46;76.01;97633.79;110176;1244;69689;-60
2023/09/20 07:48:27;;;;;;;1.80;1.50;;;;;;;22.68;75.42;97633.67;110188;1243;68553;-60
2023/09/20 07:50:56;;;;;;;2.70;1.90;;;;;;;22.27;74.54;97636.38;110226;1243;58870;-61
2023/09/20 07:53:26;;;;;;;;;;;;;;;21.99;76.28;97643.66;110190;1243;58887;-60
2023/09/20 07:56:06;;;;;;;2.60;1.80;;;;;;;22.11;77.19;97642.94;110164;1245;69405;-61
2023/09/20 07:58:40;;;;;;;2.50;1.90;;;;;;;22.16;78.76;97647.87;110166;1244;69303;-62
2023/09/20 08:01:12;;;;;;;2.50;1.60;;;;;;;22.20;78.82;97647.18;110225;1244;68455;-61
2023/09/20 08:03:50;;;;;;;2.80;2.20;;;;;;;22.13;78.78;97647.16;110132;1245;58864;-60
2023/09/20 08:06:23;;;;;;;2.80;2.20;;;;;;;21.95;79.31;97647.81;110171;1241;58950;-60
2023/09/20 08:08:52;;;;;;;2.90;2.30;;;;;;;21.75;80.22;97647.58;110201;1244;71160;-60
2023/09/20 08:11:22;;;;;;;3.00;2.70;;;;;;;21.88;78.74;97649.19;110155;1246;69758;-61
2023/09/20 08:13:54;;;;;;;2.90;2.40;;;;;;;21.92;78.88;97651.16;110172;1244;70738;-60
2023/09/20 08:16:25;;;;;;;2.80;2.00;;;;;;;22.19;75.90;97649.31;110154;1244;58980;-61
2023/09/20 08:21:45;;;;;;;2.50;1.60;;;;;;;23.52;68.71;97657.69;110196;1251;70667;-58
2023/09/20 09:04:12;;;;;;;3.60;2.30;;;;;;;28.24;49.39;97639.68;107248;1269;610464;-62
2023/09/20 09:06:42;;;;;;;2.30;1.80;;;;;;;26.54;52.20;97645.64;108735;1253;429144;-62
2023/09/20 09:09:12;;;;;;;3.60;2.10;;;;;;;26.25;54.31;97636.32;109210;1253;57727;-63
2023/09/20 09:11:45;;;;;;;2.40;1.70;;;;;;;25.72;56.01;97639.80;109081;1257;68736;-62
2023/09/20 09:14:14;;;;;;;3.80;2.90;;;;;;;26.64;54.78;97635.98;109008;1256;69318;-63
2023/09/20 09:16:44;;;;;;;2.50;2.20;;;;;;;27.07;51.49;97628.82;109017;1256;70033;-64
2023/09/20 09:19:13;;;;;;;3.00;1.80;;;;;;;26.37;52.50;97625.85;109160;1255;58093;-63
2023/09/20 09:21:43;;;;;;;3.60;1.80;;;;;;;26.22;54.07;97621.80;109122;1256;57737;-61
2023/09/20 09:24:12;;;;;;;2.30;1.60;;;;;;;26.45;53.41;97623.88;109119;1257;68827;-59
2023/09/20 09:26:45;;;;;;;2.40;1.90;;;;;;;26.77;52.73;97620.46;109185;1253;69431;-61
2023/09/20 09:29:19;;;;;;;2.50;1.50;;;;;;;26.30;53.83;97622.26;109127;1253;67920;-61
2023/09/20 09:31:55;;;;;;;2.30;1.90;;;;;;;26.84;53.61;97616.91;109127;1253;58139;-61
2023/09/20 09:34:25;;;;;;;2.50;1.80;;;;;;;26.19;52.71;97619.96;109168;1253;58475;-60
2023/09/20 09:36:54;;;;;;;2.60;1.40;;;;;;;25.57;54.54;97618.92;109031;1253;69775;-63
2023/09/20 09:39:25;;;;;;;2.50;1.90;;;;;;;25.24;55.83;97619.12;109120;1257;69806;-61
2023/09/20 09:42:03;;;;;;;2.60;1.80;;;;;;;24.78;57.95;97614.98;109060;1253;69715;-61
2023/09/20 09:44:48;;;;;;;2.60;2.30;;;;;;;24.75;59.89;97614.05;109107;1253;58184;-61
2023/09/20 09:47:19;;;;;;;2.70;2.00;;;;;;;24.45;59.98;97613.95;109140;1253;58081;-62
2023/09/20 09:49:49;;;;;;;3.70;2.60;;;;;;;24.31;62.06;97613.09;109324;1255;69785;-62
2023/09/20 09:52:26;;;;;;;2.90;2.10;;;;;;;24.78;60.33;97605.48;109170;1256;70579;-61
2023/09/20 09:54:56;;;;;;;2.40;1.70;;;;;;;24.74;58.57;97603.20;109003;1253;69314;-61
2023/09/20 09:57:25;;;;;;;2.30;1.50;;;;;;;25.42;57.79;97605.19;109153;1255;58081;-62
2023/09/20 09:59:55;;;;;;;2.10;1.70;;;;;;;26.24;56.05;97602.56;109248;1257;58154;-61
2023/09/20 10:02:31;;;;;;;3.20;2.00;;;;;;;26.61;53.55;97601.36;109228;1253;69881;-62
2023/09/20 10:05:02;;;;;;;2.40;1.90;;;;;;;27.02;54.18;97602.52;109149;1257;69284;-61
2023/09/20 10:07:35;;;;;;;2.60;1.80;;;;;;;27.08;52.24;97600.67;109127;1255;69877;-61
2023/09/20 10:10:13;;;;;;;2.80;1.80;;;;;;;26.99;52.17;97600.20;109024;1255;58147;-61
2023/09/20 10:12:47;;;;;;;2.40;1.60;;;;;;;26.84;50.60;97598.88;109214;1255;58079;-62
2023/09/20 10:15:18;;;;;;;2.70;1.60;;;;;;;26.82;51.54;97598.54;109239;1256;69036;-62
2023/09/20 10:17:55;;;;;;;2.40;2.10;;;;;;;26.23;52.62;97601.06;109398;1252;69269;-63
2023/09/20 10:20:54;;;;;;;2.50;1.90;;;;;;;26.79;51.52;97598.92;109345;1249;68305;-62
2023/09/20 10:23:25;;;;;;;2.70;2.00;;;;;;;26.95;51.26;97598.85;109344;1252;58134;-63
2023/09/20 10:26:00;;;;;;;2.50;1.80;;;;;;;27.03;49.47;97599.86;109453;1252;58060;-60
2023/09/20 10:28:37;;;;;;;4.00;2.10;;;;;;;26.94;49.42;97595.27;109514;1254;70377;-60
2023/09/20 10:31:07;;;;;;;2.00;1.40;;;;;;;26.86;49.83;97596.76;109447;1250;68583;-63
2023/09/20 10:33:45;;;;;;;3.50;2.10;;;;;;;26.40;50.62;97594.30;109309;1254;69900;-63
2023/09/20 10:36:22;;;;;;;2.50;1.90;;;;;;;25.91;52.36;97594.02;109334;1249;58062;-62
2023/09/20 10:39:11;;;;;;;5.00;3.90;;;;;;;26.77;51.32;97593.82;109380;1252;58028;-62
2023/09/20 10:41:42;;;;;;;2.80;1.80;;;;;;;27.20;50.18;97592.54;109399;1249;69841;-63
2023/09/20 10:44:26;;;;;;;3.30;1.90;;;;;;;27.63;50.09;97588.66;109417;1254;69849;-62
2023/09/20 10:47:04;;;;;;;1.60;1.40;;;;;;;28.13;47.94;97577.23;109272;1250;68943;-62
2023/09/20 10:49:41;;;;;;;1.60;1.40;;;;;;;27.95;46.70;97579.83;109287;1250;58100;-62
2023/09/20 10:52:11;;;;;;;2.90;1.50;;;;;;;27.68;47.73;97584.97;109391;1252;58091;-61
2023/09/20 10:54:41;;;;;;;2.80;1.60;;;;;;;27.72;49.28;97582.34;109419;1252;69794;-58
2023/09/20 10:57:11;;;;;;;2.40;1.50;;;;;;;27.41;47.36;97579.03;109424;1249;69851;-60
2023/09/20 10:59:41;;;;;;;2.70;2.00;;;;;;;26.92;48.33;97577.06;109277;1253;69874;-62
2023/09/20 11:02:16;;;;;;;2.10;1.90;;;;;;;27.17;49.09;97577.02;109320;1252;58086;-61
2023/09/20 11:04:48;;;;;;;2.30;1.60;;;;;;;27.20;48.29;97575.66;109318;1252;58086;-61
2023/09/20 11:07:18;;;;;;;2.10;1.50;;;;;;;27.08;48.14;97571.48;109350;1253;69743;-60
2023/09/20 11:09:47;;;;;;;2.20;1.60;;;;;;;26.87;48.15;97571.27;109274;1253;69253;-61
2023/09/20 11:12:16;;;;;;;1.70;1.30;;;;;;;26.74;48.88;97566.19;109285;1256;69141;-63
2023/09/20 11:14:47;;;;;;;;;;;;;;;26.77;49.88;97565.77;109279;1253;58149;-63
2023/09/20 11:17:18;;;;;;;6.50;2.80;;;;;;;26.59;50.35;97563.20;109436;1253;58081;-61
2023/09/20 11:19:48;;;;;;;2.70;1.70;;;;;;;26.41;51.06;97558.16;109340;1254;69754;-62
2023/09/20 11:22:18;;;;;;;4.00;3.20;;;;;;;26.89;50.77;97560.29;109349;1254;69682;-62
2023/09/20 11:24:47;;;;;;;10.80;9.40;;;;;;;27.75;47.57;97556.54;109322;1252;69813;-62
2023/09/20 11:27:16;;;;;;;;;;;;;;;28.41;45.15;97553.96;109368;1253;58170;-61
2023/09/20 11:29:48;;;;;;;;;;;;;;;29.56;46.08;97551.48;109296;1253;58138;-61
2023/09/20 11:32:22;;;;;;;2.20;1.30;;;;;;;30.28;41.66;97544.69;109335;1253;69147;-62
2023/09/20 11:34:52;;;;;;;2.40;1.50;;;;;;;30.01;40.38;97546.58;109349;1251;69823;-62
2023/09/20 11:37:22;;;;;;;1.80;1.20;;;;;;;30.59;39.41;97541.27;109343;1254;69841;-62
2023/09/20 11:39:55;;;;;;;2.70;1.30;;;;;;;30.87;40.45;97545.70;109217;1254;58075;-61
2023/09/20 11:42:28;;;;;;;2.20;1.00;;;;;;;31.12;39.06;97544.83;109253;1253;58115;-63
2023/09/20 11:45:08;;;;;;;1.80;1.00;;;;;;;31.49;38.89;97541.60;109297;1253;69764;-61
2023/09/20 11:47:56;;;;;;;2.30;1.20;;;;;;;31.75;37.67;97539.81;109233;1253;68263;-61
2023/09/20 11:50:26;;;;;;;1.60;1.00;;;;;;;32.39;36.96;97528.81;109274;1253;69864;-62
2023/09/20 11:52:55;;;;;;;1.50;1.00;;;;;;;32.98;35.28;97530.33;109940;1244;58148;-61
2023/09/20 11:55:26;;;;;;;1.50;0.90;;;;;;;33.40;34.30;97528.05;109781;1250;58138;-61
2023/09/20 11:58:00;;;;;;;1.00;0.90;;;;;;;33.48;34.48;97524.41;109854;1245;70192;-60
2023/09/20 12:00:29;;;;;;;1.70;0.90;;;;;;;33.20;34.16;97525.50;109842;1244;69811;-61
2023/09/20 12:02:59;;;;;;;1.30;1.10;;;;;;;33.40;34.39;97523.58;109806;1244;69905;-61
2023/09/20 12:05:29;;;;;;;2.60;1.20;;;;;;;33.11;34.07;97516.80;109998;1244;58157;-61
2023/09/20 12:07:59;;;;;;;1.20;0.90;;;;;;;32.79;34.27;97518.86;109771;1247;58076;-62
2023/09/20 12:10:30;;;;;;;1.10;1.00;;;;;;;30.43;36.35;97520.08;109946;1243;70358;-62
2023/09/20 12:13:00;;;;;;;1.30;0.90;;;;;;;30.00;37.55;97525.61;109935;1244;69260;-61
2023/09/20 12:15:29;;;;;;;1.10;1.00;;;;;;;30.44;37.00;97517.77;109961;1244;69895;-60
2023/09/20 12:17:58;;;;;;;1.40;0.90;;;;;;;31.46;36.27;97516.86;109977;1243;58084;-61
2023/09/20 12:20:27;;;;;;;2.30;1.00;;;;;;;32.35;35.04;97508.68;110012;1245;58021;-61
2023/09/20 12:23:01;;;;;;;1.40;0.90;;;;;;;32.83;33.75;97510.70;109911;1243;69725;-61
2023/09/20 12:25:31;;;;;;;1.90;1.00;;;;;;;33.00;33.90;97507.40;109984;1244;69121;-60
2023/09/20 12:28:00;;;;;;;2.10;1.10;;;;;;;33.54;33.41;97505.13;110052;1244;69439;-61
2023/09/20 12:30:29;;;;;;;1.60;1.10;;;;;;;32.08;33.69;97508.19;109993;1244;58106;-62
2023/09/20 12:33:00;;;;;;;2.10;1.20;;;;;;;32.20;34.78;97501.52;110077;1244;58073;-61
2023/09/20 12:35:34;;;;;;;1.20;0.80;;;;;;;32.99;33.99;97500.19;109907;1244;70181;-61
2023/09/20 12:38:04;;;;;;;1.50;1.10;;;;;;;33.38;33.71;97500.13;109808;1246;69901;-60